sensor_id;sensor_type;location;lat;lon;timestamp;temperature;humidity
65536;DHT22;52145;49.342;9.116;2023-02-11T00:01:32;-1.70;99.90
65536;DHT22;52145;49.342;9.116;2023-02-11T00:03:59;-1.60;99.90
65536;DHT22;52145;49.342;9.116;2023-02-11T00:06:28;-1.70;99.90
65536;DHT22;52145;49.342;9.116;2023-02-11T00:08:54;-1.70;99.90
65536;DHT22;52145;49.342;9.116;2023-02-11T00:11:21;-1.70;99.90
65536;DHT22;52145;49.342;9.116;2023-02-11T00:13:47;-1.70;99.90
65536;DHT22;52145;49.342;9.116;2023-02-11T00:16:18;-1.70;99.90
65536;DHT22;52145;49.342;9.116;2023-02-11T00:18:44;-1.70;99.90
65536;DHT22;52145;49.342;9.116;2023-02-11T00:21:19;-1.70;99.90
65536;DHT22;52145;49.342;9.116;2023-02-11T00:23:45;-1.70;99.90
65536;DHT22;52145;49.342;9.116;2023-02-11T00:26:23;-1.70;99.90
65536;DHT22;52145;49.342;9.116;2023-02-11T00:28:50;-1.70;99.90
65536;DHT22;52145;49.342;9.116;2023-02-11T00:31:17;-1.80;99.90
65536;DHT22;52145;49.342;9.116;2023-02-11T00:33:43;-1.80;99.90
65536;DHT22;52145;49.342;9.116;2023-02-11T00:36:16;-1.70;99.90
65536;DHT22;52145;49.342;9.116;2023-02-11T00:38:43;-1.80;99.90
65536;DHT22;52145;49.342;9.116;2023-02-11T00:41:09;-1.80;99.90
65536;DHT22;52145;49.342;9.116;2023-02-11T00:43:35;-1.80;99.90
65536;DHT22;52145;49.342;9.116;2023-02-11T00:46:01;-1.80;99.90
65536;DHT22;52145;49.342;9.116;2023-02-11T00:48:26;-1.80;99.90
65536;DHT22;52145;49.342;9.116;2023-02-11T00:50:52;-1.80;99.90
65536;DHT22;52145;49.342;9.116;2023-02-11T00:53:17;-1.70;99.90
65536;DHT22;52145;49.342;9.116;2023-02-11T00:55:43;-1.60;99.90
65536;DHT22;52145;49.342;9.116;2023-02-11T00:58:08;-1.60;99.90
65536;DHT22;52145;49.342;9.116;2023-02-11T01:00:34;-1.70;99.90
65536;DHT22;52145;49.342;9.116;2023-02-11T01:02:59;-1.60;99.90
65536;DHT22;52145;49.342;9.116;2023-02-11T01:05:25;-1.70;99.90
65536;DHT22;52145;49.342;9.116;2023-02-11T01:07:51;-1.60;99.90
65536;DHT22;52145;49.342;9.116;2023-02-11T01:10:16;-1.50;99.90
65536;DHT22;52145;49.342;9.116;2023-02-11T01:12:42;-1.50;99.90
65536;DHT22;52145;49.342;9.116;2023-02-11T01:15:08;-1.40;99.90
65536;DHT22;52145;49.342;9.116;2023-02-11T01:17:34;-1.30;99.90
65536;DHT22;52145;49.342;9.116;2023-02-11T01:20:05;-1.20;99.90
65536;DHT22;52145;49.342;9.116;2023-02-11T01:22:31;-1.10;99.90
65536;DHT22;52145;49.342;9.116;2023-02-11T01:24:59;-1.10;99.90
65536;DHT22;52145;49.342;9.116;2023-02-11T01:27:24;-1.00;99.90
65536;DHT22;52145;49.342;9.116;2023-02-11T01:29:50;-0.90;99.90
65536;DHT22;52145;49.342;9.116;2023-02-11T01:32:17;-0.90;99.90
65536;DHT22;52145;49.342;9.116;2023-02-11T01:34:42;-1.00;99.90
65536;DHT22;52145;49.342;9.116;2023-02-11T01:37:08;-1.00;99.90
65536;DHT22;52145;49.342;9.116;2023-02-11T01:39:34;-0.90;99.90
65536;DHT22;52145;49.342;9.116;2023-02-11T01:42:00;-1.00;99.90
65536;DHT22;52145;49.342;9.116;2023-02-11T01:46:53;-1.00;99.90
65536;DHT22;52145;49.342;9.116;2023-02-11T01:49:27;-0.90;99.90
65536;DHT22;52145;49.342;9.116;2023-02-11T01:52:28;-1.00;99.90
65536;DHT22;52145;49.342;9.116;2023-02-11T01:55:02;-0.80;99.90
65536;DHT22;52145;49.342;9.116;2023-02-11T01:57:51;-0.90;99.90
65536;DHT22;52145;49.342;9.116;2023-02-11T02:00:33;-0.90;99.90
65536;DHT22;52145;49.342;9.116;2023-02-11T02:03:16;-0.90;99.90
65536;DHT22;52145;49.342;9.116;2023-02-11T02:05:54;-0.80;99.90
65536;DHT22;52145;49.342;9.116;2023-02-11T02:08:47;-0.70;99.90
65536;DHT22;52145;49.342;9.116;2023-02-11T02:11:15;-0.70;99.90
65536;DHT22;52145;49.342;9.116;2023-02-11T02:13:41;-0.60;99.90
65536;DHT22;52145;49.342;9.116;2023-02-11T02:16:15;-0.50;99.90
65536;DHT22;52145;49.342;9.116;2023-02-11T02:19:08;-0.60;99.90
65536;DHT22;52145;49.342;9.116;2023-02-11T02:27:39;-0.60;99.90
65536;DHT22;52145;49.342;9.116;2023-02-11T02:32:48;-0.40;99.90
65536;DHT22;52145;49.342;9.116;2023-02-11T02:41:10;-0.30;99.90
65536;DHT22;52145;49.342;9.116;2023-02-11T02:43:43;-0.40;99.90
65536;DHT22;52145;49.342;9.116;2023-02-11T02:46:19;-0.40;99.90
65536;DHT22;52145;49.342;9.116;2023-02-11T02:48:45;-0.40;99.90
65536;DHT22;52145;49.342;9.116;2023-02-11T02:54:32;-0.50;99.90
65536;DHT22;52145;49.342;9.116;2023-02-11T03:02:51;-0.70;99.90
65536;DHT22;52145;49.342;9.116;2023-02-11T03:05:24;-0.70;99.90
65536;DHT22;52145;49.342;9.116;2023-02-11T03:08:15;-0.70;99.90
65536;DHT22;52145;49.342;9.116;2023-02-11T03:10:47;-0.70;99.90
65536;DHT22;52145;49.342;9.116;2023-02-11T03:13:15;-0.80;99.90
65536;DHT22;52145;49.342;9.116;2023-02-11T03:15:45;-0.80;99.90
65536;DHT22;52145;49.342;9.116;2023-02-11T03:18:14;-0.70;99.90
65536;DHT22;52145;49.342;9.116;2023-02-11T03:20:43;-0.80;99.90
65536;DHT22;52145;49.342;9.116;2023-02-11T03:23:28;-0.70;99.90
65536;DHT22;52145;49.342;9.116;2023-02-11T03:26:07;-0.70;99.90
65536;DHT22;52145;49.342;9.116;2023-02-11T03:34:36;-0.60;99.90
65536;DHT22;52145;49.342;9.116;2023-02-11T03:37:12;-0.50;99.90
65536;DHT22;52145;49.342;9.116;2023-02-11T03:39:43;-0.50;99.90
65536;DHT22;52145;49.342;9.116;2023-02-11T03:42:10;-0.40;99.90
65536;DHT22;52145;49.342;9.116;2023-02-11T03:44:45;-0.40;99.90
65536;DHT22;52145;49.342;9.116;2023-02-11T03:47:14;-0.40;99.90
65536;DHT22;52145;49.342;9.116;2023-02-11T03:49:42;-0.30;99.90
65536;DHT22;52145;49.342;9.116;2023-02-11T03:52:10;-0.30;99.90
65536;DHT22;52145;49.342;9.116;2023-02-11T03:54:39;-0.20;99.90
65536;DHT22;52145;49.342;9.116;2023-02-11T03:57:06;-0.30;99.90
65536;DHT22;52145;49.342;9.116;2023-02-11T03:59:57;-0.30;99.90
65536;DHT22;52145;49.342;9.116;2023-02-11T04:02:27;-0.30;99.90
65536;DHT22;52145;49.342;9.116;2023-02-11T04:04:53;-0.20;99.90
65536;DHT22;52145;49.342;9.116;2023-02-11T04:07:19;-0.20;99.90
65536;DHT22;52145;49.342;9.116;2023-02-11T04:09:45;-0.30;99.90
65536;DHT22;52145;49.342;9.116;2023-02-11T04:12:10;-0.30;99.90
65536;DHT22;52145;49.342;9.116;2023-02-11T04:14:36;-0.30;99.90
65536;DHT22;52145;49.342;9.116;2023-02-11T04:17:01;-0.30;99.90
65536;DHT22;52145;49.342;9.116;2023-02-11T04:19:27;-0.30;99.90
65536;DHT22;52145;49.342;9.116;2023-02-11T04:21:53;-0.30;99.90
65536;DHT22;52145;49.342;9.116;2023-02-11T04:24:18;-0.20;99.90
65536;DHT22;52145;49.342;9.116;2023-02-11T04:26:43;-0.10;99.90
65536;DHT22;52145;49.342;9.116;2023-02-11T04:29:09;-0.10;99.90
65536;DHT22;52145;49.342;9.116;2023-02-11T04:31:35;-0.20;99.90
65536;DHT22;52145;49.342;9.116;2023-02-11T04:34:00;-0.20;99.90
65536;DHT22;52145;49.342;9.116;2023-02-11T04:36:26;-0.10;99.90
65536;DHT22;52145;49.342;9.116;2023-02-11T04:38:51;-0.10;99.90
65536;DHT22;52145;49.342;9.116;2023-02-11T04:41:17;-0.10;99.90
65536;DHT22;52145;49.342;9.116;2023-02-11T04:43:42;-0.20;99.90
65536;DHT22;52145;49.342;9.116;2023-02-11T04:46:08;-0.20;99.90
65536;DHT22;52145;49.342;9.116;2023-02-11T04:48:33;-0.10;99.90
65536;DHT22;52145;49.342;9.116;2023-02-11T04:51:00;-0.10;99.90
65536;DHT22;52145;49.342;9.116;2023-02-11T04:53:26;-0.10;99.90
65536;DHT22;52145;49.342;9.116;2023-02-11T04:55:52;0.00;99.90
65536;DHT22;52145;49.342;9.116;2023-02-11T04:58:17;-0.10;99.90
65536;DHT22;52145;49.342;9.116;2023-02-11T05:00:43;-0.10;99.90
65536;DHT22;52145;49.342;9.116;2023-02-11T05:03:09;0.00;99.90
65536;DHT22;52145;49.342;9.116;2023-02-11T05:05:37;-0.10;99.90
65536;DHT22;52145;49.342;9.116;2023-02-11T05:08:04;0.00;99.90
65536;DHT22;52145;49.342;9.116;2023-02-11T05:10:30;-0.10;99.90
65536;DHT22;52145;49.342;9.116;2023-02-11T05:12:55;-0.10;99.90
65536;DHT22;52145;49.342;9.116;2023-02-11T05:15:21;-0.20;99.90
65536;DHT22;52145;49.342;9.116;2023-02-11T10:01:39;6.00;99.90
65536;DHT22;52145;49.342;9.116;2023-02-11T10:06:56;6.60;99.90
65536;DHT22;52145;49.342;9.116;2023-02-11T10:15:30;6.80;99.90
65536;DHT22;52145;49.342;9.116;2023-02-11T10:20:49;7.90;99.90
65536;DHT22;52145;49.342;9.116;2023-02-11T10:23:24;7.90;99.90
65536;DHT22;52145;49.342;9.116;2023-02-11T10:25:52;7.70;99.90
65536;DHT22;52145;49.342;9.116;2023-02-11T10:28:35;8.20;99.90
65536;DHT22;52145;49.342;9.116;2023-02-11T10:31:05;8.20;99.90
65536;DHT22;52145;49.342;9.116;2023-02-11T10:36:15;8.60;99.90
65536;DHT22;52145;49.342;9.116;2023-02-11T10:38:42;8.50;99.90
65536;DHT22;52145;49.342;9.116;2023-02-11T10:41:20;8.20;99.90
65536;DHT22;52145;49.342;9.116;2023-02-11T10:43:47;7.90;99.90
65536;DHT22;52145;49.342;9.116;2023-02-11T10:46:17;7.90;99.90
65536;DHT22;52145;49.342;9.116;2023-02-11T10:48:48;7.50;99.90
65536;DHT22;52145;49.342;9.116;2023-02-11T10:51:24;7.60;99.90
65536;DHT22;52145;49.342;9.116;2023-02-11T10:54:16;7.40;99.90
65536;DHT22;52145;49.342;9.116;2023-02-11T10:56:46;7.30;99.90
65536;DHT22;52145;49.342;9.116;2023-02-11T10:59:16;7.60;99.90
65536;DHT22;52145;49.342;9.116;2023-02-11T11:01:49;8.00;99.90
65536;DHT22;52145;49.342;9.116;2023-02-11T11:04:33;8.00;99.90
65536;DHT22;52145;49.342;9.116;2023-02-11T11:07:17;8.30;99.90
65536;DHT22;52145;49.342;9.116;2023-02-11T11:09:57;8.60;99.90
65536;DHT22;52145;49.342;9.116;2023-02-11T11:12:31;8.80;99.90
65536;DHT22;52145;49.342;9.116;2023-02-11T11:17:34;8.40;99.90
65536;DHT22;52145;49.342;9.116;2023-02-11T11:20:26;8.70;99.90
65536;DHT22;52145;49.342;9.116;2023-02-11T11:23:08;9.00;99.90
65536;DHT22;52145;49.342;9.116;2023-02-11T11:25:36;8.90;99.90
65536;DHT22;52145;49.342;9.116;2023-02-11T11:28:03;8.70;99.90
65536;DHT22;52145;49.342;9.116;2023-02-11T11:30:41;8.80;99.90
65536;DHT22;52145;49.342;9.116;2023-02-11T11:33:27;8.50;99.90
65536;DHT22;52145;49.342;9.116;2023-02-11T11:36:02;8.60;99.90
65536;DHT22;52145;49.342;9.116;2023-02-11T11:38:29;8.80;99.90
65536;DHT22;52145;49.342;9.116;2023-02-11T11:41:28;9.10;99.90
65536;DHT22;52145;49.342;9.116;2023-02-11T11:46:35;9.00;99.90
65536;DHT22;52145;49.342;9.116;2023-02-11T11:49:16;8.90;99.90
65536;DHT22;52145;49.342;9.116;2023-02-11T11:51:53;9.30;99.90
65536;DHT22;52145;49.342;9.116;2023-02-11T11:54:19;9.50;99.90
65536;DHT22;52145;49.342;9.116;2023-02-11T11:57:14;9.70;99.90
65536;DHT22;52145;49.342;9.116;2023-02-11T11:59:41;9.20;99.90
65536;DHT22;52145;49.342;9.116;2023-02-11T12:05:00;11.50;99.90
65536;DHT22;52145;49.342;9.116;2023-02-11T12:07:53;12.00;99.90
65536;DHT22;52145;49.342;9.116;2023-02-11T12:13:18;12.10;99.90
65536;DHT22;52145;49.342;9.116;2023-02-11T12:21:41;12.40;99.90
65536;DHT22;52145;49.342;9.116;2023-02-11T12:27:25;11.80;99.90
65536;DHT22;52145;49.342;9.116;2023-02-11T12:35:58;12.80;99.90
65536;DHT22;52145;49.342;9.116;2023-02-11T12:41:26;13.90;99.90
65536;DHT22;52145;49.342;9.116;2023-02-11T12:47:38;13.80;99.90
65536;DHT22;52145;49.342;9.116;2023-02-11T12:52:57;13.60;99.90
65536;DHT22;52145;49.342;9.116;2023-02-11T12:55:29;13.90;99.90
65536;DHT22;52145;49.342;9.116;2023-02-11T12:58:01;14.80;99.90
65536;DHT22;52145;49.342;9.116;2023-02-11T13:00:51;15.00;99.90
65536;DHT22;52145;49.342;9.116;2023-02-11T13:03:34;15.10;99.90
65536;DHT22;52145;49.342;9.116;2023-02-11T13:06:06;13.90;99.90
65536;DHT22;52145;49.342;9.116;2023-02-11T13:08:40;13.60;99.90
65536;DHT22;52145;49.342;9.116;2023-02-11T13:18:54;13.80;99.90
65536;DHT22;52145;49.342;9.116;2023-02-11T13:21:35;13.70;99.90
65536;DHT22;52145;49.342;9.116;2023-02-11T13:24:14;14.10;99.90
65536;DHT22;52145;49.342;9.116;2023-02-11T13:27:05;14.00;99.90
65536;DHT22;52145;49.342;9.116;2023-02-11T13:38:04;14.60;99.90
65536;DHT22;52145;49.342;9.116;2023-02-11T13:40:37;14.10;99.90
65536;DHT22;52145;49.342;9.116;2023-02-11T13:43:05;13.40;99.90
65536;DHT22;52145;49.342;9.116;2023-02-11T13:45:44;13.00;99.90
65536;DHT22;52145;49.342;9.116;2023-02-11T13:48:21;12.70;99.90
65536;DHT22;52145;49.342;9.116;2023-02-11T13:50:52;12.30;99.90
65536;DHT22;52145;49.342;9.116;2023-02-11T13:53:19;12.00;99.90
65536;DHT22;52145;49.342;9.116;2023-02-11T13:55:47;11.30;99.90
65536;DHT22;52145;49.342;9.116;2023-02-11T14:11:46;10.90;99.90
65536;DHT22;52145;49.342;9.116;2023-02-11T14:14:27;10.90;99.90
65536;DHT22;52145;49.342;9.116;2023-02-11T14:17:16;10.80;99.90
65536;DHT22;52145;49.342;9.116;2023-02-11T14:19:45;10.60;99.90
65536;DHT22;52145;49.342;9.116;2023-02-11T14:22:16;10.40;99.90
65536;DHT22;52145;49.342;9.116;2023-02-11T14:24:50;9.90;99.90
65536;DHT22;52145;49.342;9.116;2023-02-11T14:34:59;9.90;99.90
65536;DHT22;52145;49.342;9.116;2023-02-11T14:37:53;9.70;99.90
65536;DHT22;52145;49.342;9.116;2023-02-11T14:42:46;9.80;99.90
65536;DHT22;52145;49.342;9.116;2023-02-11T14:45:20;9.70;99.90
65536;DHT22;52145;49.342;9.116;2023-02-11T14:47:56;9.40;99.90
65536;DHT22;52145;49.342;9.116;2023-02-11T14:50:27;9.30;99.90
65536;DHT22;52145;49.342;9.116;2023-02-11T14:52:59;9.20;99.90
65536;DHT22;52145;49.342;9.116;2023-02-11T14:55:27;9.20;99.90
65536;DHT22;52145;49.342;9.116;2023-02-11T15:00:35;9.10;99.90
65536;DHT22;52145;49.342;9.116;2023-02-11T15:03:01;9.10;99.90
65536;DHT22;52145;49.342;9.116;2023-02-11T15:05:27;9.20;99.90
65536;DHT22;52145;49.342;9.116;2023-02-11T15:08:01;9.20;99.90
65536;DHT22;52145;49.342;9.116;2023-02-11T15:10:37;9.20;99.90
65536;DHT22;52145;49.342;9.116;2023-02-11T15:13:05;9.20;99.90
65536;DHT22;52145;49.342;9.116;2023-02-11T15:15:32;9.10;99.90
65536;DHT22;52145;49.342;9.116;2023-02-11T15:18:01;8.90;99.90
65536;DHT22;52145;49.342;9.116;2023-02-11T15:20:30;8.90;99.90
65536;DHT22;52145;49.342;9.116;2023-02-11T15:23:06;8.80;99.90
65536;DHT22;52145;49.342;9.116;2023-02-11T15:25:33;8.80;99.90
65536;DHT22;52145;49.342;9.116;2023-02-11T15:28:19;8.70;99.90
65536;DHT22;52145;49.342;9.116;2023-02-11T15:30:45;8.70;99.90
65536;DHT22;52145;49.342;9.116;2023-02-11T15:33:21;8.60;99.90
65536;DHT22;52145;49.342;9.116;2023-02-11T15:35:47;8.70;99.90
65536;DHT22;52145;49.342;9.116;2023-02-11T15:38:12;8.70;99.90
65536;DHT22;52145;49.342;9.116;2023-02-11T15:40:38;8.60;99.90
65536;DHT22;52145;49.342;9.116;2023-02-11T15:43:06;8.50;99.90
65536;DHT22;52145;49.342;9.116;2023-02-11T15:50:35;8.50;99.90
65536;DHT22;52145;49.342;9.116;2023-02-11T15:53:26;8.30;99.90
65536;DHT22;52145;49.342;9.116;2023-02-11T15:55:53;8.30;99.90
65536;DHT22;52145;49.342;9.116;2023-02-11T15:58:22;8.20;99.90
65536;DHT22;52145;49.342;9.116;2023-02-11T16:00:50;8.20;99.90
65536;DHT22;52145;49.342;9.116;2023-02-11T16:03:26;8.20;99.90
65536;DHT22;52145;49.342;9.116;2023-02-11T16:06:29;8.20;99.90
65536;DHT22;52145;49.342;9.116;2023-02-11T16:16:57;8.00;99.90
65536;DHT22;52145;49.342;9.116;2023-02-11T16:19:24;8.00;99.90
65536;DHT22;52145;49.342;9.116;2023-02-11T16:21:50;7.90;99.90
65536;DHT22;52145;49.342;9.116;2023-02-11T16:24:20;7.90;99.90
65536;DHT22;52145;49.342;9.116;2023-02-11T16:26:48;7.80;99.90
65536;DHT22;52145;49.342;9.116;2023-02-11T16:29:16;7.80;99.90
65536;DHT22;52145;49.342;9.116;2023-02-11T16:31:46;7.80;99.90
65536;DHT22;52145;49.342;9.116;2023-02-11T16:34:19;7.80;99.90
65536;DHT22;52145;49.342;9.116;2023-02-11T16:36:46;7.90;99.90
65536;DHT22;52145;49.342;9.116;2023-02-11T16:39:12;7.70;99.90
65536;DHT22;52145;49.342;9.116;2023-02-11T16:41:38;7.80;99.90
65536;DHT22;52145;49.342;9.116;2023-02-11T16:44:04;7.80;99.90
65536;DHT22;52145;49.342;9.116;2023-02-11T16:46:31;7.70;99.90
65536;DHT22;52145;49.342;9.116;2023-02-11T16:48:57;7.70;99.90
65536;DHT22;52145;49.342;9.116;2023-02-11T16:51:25;7.70;99.90
65536;DHT22;52145;49.342;9.116;2023-02-11T16:53:50;7.70;99.90
65536;DHT22;52145;49.342;9.116;2023-02-11T16:56:16;7.70;99.90
65536;DHT22;52145;49.342;9.116;2023-02-11T16:58:43;7.60;99.90
65536;DHT22;52145;49.342;9.116;2023-02-11T17:01:09;7.60;99.90
65536;DHT22;52145;49.342;9.116;2023-02-11T17:03:35;7.60;99.90
65536;DHT22;52145;49.342;9.116;2023-02-11T17:06:08;7.50;99.90
65536;DHT22;52145;49.342;9.116;2023-02-11T17:08:34;7.40;99.90
65536;DHT22;52145;49.342;9.116;2023-02-11T17:11:00;7.40;99.90
65536;DHT22;52145;49.342;9.116;2023-02-11T17:13:26;7.40;99.90
65536;DHT22;52145;49.342;9.116;2023-02-11T17:15:52;7.30;99.90
65536;DHT22;52145;49.342;9.116;2023-02-11T17:18:17;7.30;99.90
65536;DHT22;52145;49.342;9.116;2023-02-11T17:20:43;7.30;99.90
65536;DHT22;52145;49.342;9.116;2023-02-11T17:23:09;7.20;99.90
65536;DHT22;52145;49.342;9.116;2023-02-11T17:25:34;7.20;99.90
65536;DHT22;52145;49.342;9.116;2023-02-11T17:28:03;7.10;99.90
65536;DHT22;52145;49.342;9.116;2023-02-11T17:30:28;7.20;99.90
65536;DHT22;52145;49.342;9.116;2023-02-11T17:32:54;7.10;99.90
65536;DHT22;52145;49.342;9.116;2023-02-11T17:35:19;7.10;99.90
65536;DHT22;52145;49.342;9.116;2023-02-11T17:37:45;7.10;99.90
65536;DHT22;52145;49.342;9.116;2023-02-11T17:40:11;7.20;99.90
65536;DHT22;52145;49.342;9.116;2023-02-11T17:42:37;7.20;99.90
65536;DHT22;52145;49.342;9.116;2023-02-11T17:45:02;7.20;99.90
65536;DHT22;52145;49.342;9.116;2023-02-11T17:47:28;7.20;99.90
65536;DHT22;52145;49.342;9.116;2023-02-11T17:49:54;7.30;99.90
65536;DHT22;52145;49.342;9.116;2023-02-11T17:52:20;7.30;99.90
65536;DHT22;52145;49.342;9.116;2023-02-11T17:54:46;7.30;99.90
65536;DHT22;52145;49.342;9.116;2023-02-11T17:57:12;7.30;99.90
65536;DHT22;52145;49.342;9.116;2023-02-11T17:59:38;7.30;99.90
65536;DHT22;52145;49.342;9.116;2023-02-11T18:02:04;7.30;99.90
65536;DHT22;52145;49.342;9.116;2023-02-11T18:04:30;7.30;99.90
65536;DHT22;52145;49.342;9.116;2023-02-11T18:06:56;7.30;99.90
65536;DHT22;52145;49.342;9.116;2023-02-11T18:09:23;7.30;99.90
65536;DHT22;52145;49.342;9.116;2023-02-11T18:11:49;7.30;99.90
65536;DHT22;52145;49.342;9.116;2023-02-11T18:14:17;7.20;99.90
65536;DHT22;52145;49.342;9.116;2023-02-11T18:16:43;7.10;99.90
65536;DHT22;52145;49.342;9.116;2023-02-11T18:19:11;7.00;99.90
65536;DHT22;52145;49.342;9.116;2023-02-11T18:21:37;6.90;99.90
65536;DHT22;52145;49.342;9.116;2023-02-11T18:24:03;6.90;99.90
65536;DHT22;52145;49.342;9.116;2023-02-11T18:26:29;6.90;99.90
65536;DHT22;52145;49.342;9.116;2023-02-11T18:28:57;7.00;99.90
65536;DHT22;52145;49.342;9.116;2023-02-11T18:31:23;6.90;99.90
65536;DHT22;52145;49.342;9.116;2023-02-11T18:33:49;7.00;99.90
65536;DHT22;52145;49.342;9.116;2023-02-11T18:36:17;6.90;99.90
65536;DHT22;52145;49.342;9.116;2023-02-11T18:38:42;6.90;99.90
65536;DHT22;52145;49.342;9.116;2023-02-11T18:41:09;7.00;99.90
65536;DHT22;52145;49.342;9.116;2023-02-11T18:43:35;6.90;99.90
65536;DHT22;52145;49.342;9.116;2023-02-11T18:46:05;7.00;99.90
65536;DHT22;52145;49.342;9.116;2023-02-11T18:48:31;7.00;99.90
65536;DHT22;52145;49.342;9.116;2023-02-11T18:50:56;6.90;99.90
65536;DHT22;52145;49.342;9.116;2023-02-11T18:53:22;6.90;99.90
65536;DHT22;52145;49.342;9.116;2023-02-11T18:55:51;6.90;99.90
65536;DHT22;52145;49.342;9.116;2023-02-11T18:58:16;6.90;99.90
65536;DHT22;52145;49.342;9.116;2023-02-11T19:00:45;7.00;99.90
65536;DHT22;52145;49.342;9.116;2023-02-11T19:03:11;7.00;99.90
65536;DHT22;52145;49.342;9.116;2023-02-11T19:05:45;7.00;99.90
65536;DHT22;52145;49.342;9.116;2023-02-11T19:08:11;7.00;99.90
65536;DHT22;52145;49.342;9.116;2023-02-11T19:10:41;7.00;99.90
65536;DHT22;52145;49.342;9.116;2023-02-11T19:13:06;7.00;99.90
65536;DHT22;52145;49.342;9.116;2023-02-11T19:15:32;6.90;99.90
65536;DHT22;52145;49.342;9.116;2023-02-11T19:17:57;6.90;99.90
65536;DHT22;52145;49.342;9.116;2023-02-11T19:20:23;6.90;99.90
65536;DHT22;52145;49.342;9.116;2023-02-11T19:22:49;6.80;99.90
65536;DHT22;52145;49.342;9.116;2023-02-11T19:25:14;6.80;99.90
65536;DHT22;52145;49.342;9.116;2023-02-11T19:27:40;6.80;99.90
65536;DHT22;52145;49.342;9.116;2023-02-11T19:30:07;6.80;99.90
65536;DHT22;52145;49.342;9.116;2023-02-11T19:32:32;6.70;99.90
65536;DHT22;52145;49.342;9.116;2023-02-11T19:34:58;6.80;99.90
65536;DHT22;52145;49.342;9.116;2023-02-11T19:37:24;6.80;99.90
65536;DHT22;52145;49.342;9.116;2023-02-11T19:39:49;6.70;99.90
65536;DHT22;52145;49.342;9.116;2023-02-11T19:42:15;6.80;99.90
65536;DHT22;52145;49.342;9.116;2023-02-11T19:44:40;6.80;99.90
65536;DHT22;52145;49.342;9.116;2023-02-11T19:47:06;6.80;99.90
65536;DHT22;52145;49.342;9.116;2023-02-11T19:49:32;6.70;99.90
65536;DHT22;52145;49.342;9.116;2023-02-11T19:51:58;6.70;99.90
65536;DHT22;52145;49.342;9.116;2023-02-11T19:54:24;6.70;99.90
65536;DHT22;52145;49.342;9.116;2023-02-11T19:56:54;6.70;99.90
65536;DHT22;52145;49.342;9.116;2023-02-11T19:59:20;6.60;99.90
65536;DHT22;52145;49.342;9.116;2023-02-11T20:01:46;6.60;99.90
65536;DHT22;52145;49.342;9.116;2023-02-11T20:04:14;6.60;99.90
65536;DHT22;52145;49.342;9.116;2023-02-11T20:06:40;6.50;99.90
65536;DHT22;52145;49.342;9.116;2023-02-11T20:09:07;6.50;99.90
65536;DHT22;52145;49.342;9.116;2023-02-11T20:11:35;6.50;99.90
65536;DHT22;52145;49.342;9.116;2023-02-11T20:14:02;6.40;99.90
65536;DHT22;52145;49.342;9.116;2023-02-11T20:16:29;6.40;99.90
65536;DHT22;52145;49.342;9.116;2023-02-11T20:18:55;6.50;99.90
65536;DHT22;52145;49.342;9.116;2023-02-11T20:21:23;6.50;99.90
65536;DHT22;52145;49.342;9.116;2023-02-11T20:23:49;6.50;99.90
65536;DHT22;52145;49.342;9.116;2023-02-11T20:26:23;6.60;99.90
65536;DHT22;52145;49.342;9.116;2023-02-11T20:28:51;6.50;99.90
65536;DHT22;52145;49.342;9.116;2023-02-11T20:31:17;6.40;99.90
65536;DHT22;52145;49.342;9.116;2023-02-11T20:33:43;6.40;99.90
65536;DHT22;52145;49.342;9.116;2023-02-11T20:36:13;6.30;99.90
65536;DHT22;52145;49.342;9.116;2023-02-11T20:38:40;6.40;99.90
65536;DHT22;52145;49.342;9.116;2023-02-11T20:41:07;6.30;99.90
65536;DHT22;52145;49.342;9.116;2023-02-11T20:43:35;6.30;99.90
65536;DHT22;52145;49.342;9.116;2023-02-11T20:46:03;6.30;99.90
65536;DHT22;52145;49.342;9.116;2023-02-11T20:48:30;6.30;99.90
65536;DHT22;52145;49.342;9.116;2023-02-11T20:51:03;6.30;99.90
65536;DHT22;52145;49.342;9.116;2023-02-11T20:53:29;6.30;99.90
65536;DHT22;52145;49.342;9.116;2023-02-11T20:55:54;6.30;99.90
65536;DHT22;52145;49.342;9.116;2023-02-11T20:58:20;6.30;99.90
65536;DHT22;52145;49.342;9.116;2023-02-11T21:00:46;6.20;99.90
65536;DHT22;52145;49.342;9.116;2023-02-11T21:03:11;6.20;99.90
65536;DHT22;52145;49.342;9.116;2023-02-11T21:05:37;6.20;99.90
65536;DHT22;52145;49.342;9.116;2023-02-11T21:08:02;6.20;99.90
65536;DHT22;52145;49.342;9.116;2023-02-11T21:10:28;6.10;99.90
65536;DHT22;52145;49.342;9.116;2023-02-11T21:12:53;6.10;99.90
65536;DHT22;52145;49.342;9.116;2023-02-11T21:15:19;6.20;99.90
65536;DHT22;52145;49.342;9.116;2023-02-11T21:17:45;6.10;99.90
65536;DHT22;52145;49.342;9.116;2023-02-11T21:20:10;6.20;99.90
65536;DHT22;52145;49.342;9.116;2023-02-11T21:22:36;6.20;99.90
65536;DHT22;52145;49.342;9.116;2023-02-11T21:25:02;6.10;99.90
65536;DHT22;52145;49.342;9.116;2023-02-11T21:27:27;6.10;99.90
65536;DHT22;52145;49.342;9.116;2023-02-11T21:29:58;6.10;99.90
65536;DHT22;52145;49.342;9.116;2023-02-11T21:32:24;6.00;99.90
65536;DHT22;52145;49.342;9.116;2023-02-11T21:34:50;5.90;99.90
65536;DHT22;52145;49.342;9.116;2023-02-11T21:37:16;5.90;99.90
65536;DHT22;52145;49.342;9.116;2023-02-11T21:39:41;5.90;99.90
65536;DHT22;52145;49.342;9.116;2023-02-11T21:42:07;5.90;99.90
65536;DHT22;52145;49.342;9.116;2023-02-11T21:44:33;6.00;99.90
65536;DHT22;52145;49.342;9.116;2023-02-11T21:46:58;6.00;99.90
65536;DHT22;52145;49.342;9.116;2023-02-11T21:49:24;6.00;99.90
65536;DHT22;52145;49.342;9.116;2023-02-11T21:51:50;6.00;99.90
65536;DHT22;52145;49.342;9.116;2023-02-11T21:54:15;5.90;99.90
65536;DHT22;52145;49.342;9.116;2023-02-11T21:56:43;5.90;99.90
65536;DHT22;52145;49.342;9.116;2023-02-11T21:59:10;5.90;99.90
65536;DHT22;52145;49.342;9.116;2023-02-11T22:01:37;5.90;99.90
65536;DHT22;52145;49.342;9.116;2023-02-11T22:04:03;5.90;99.90
65536;DHT22;52145;49.342;9.116;2023-02-11T22:06:31;5.80;99.90
65536;DHT22;52145;49.342;9.116;2023-02-11T22:09:00;5.80;99.90
65536;DHT22;52145;49.342;9.116;2023-02-11T22:11:26;5.80;99.90
65536;DHT22;52145;49.342;9.116;2023-02-11T22:13:55;5.80;99.90
65536;DHT22;52145;49.342;9.116;2023-02-11T22:16:22;5.80;99.90
65536;DHT22;52145;49.342;9.116;2023-02-11T22:18:48;5.70;99.90
65536;DHT22;52145;49.342;9.116;2023-02-11T22:21:19;5.60;99.90
65536;DHT22;52145;49.342;9.116;2023-02-11T22:23:45;5.60;99.90
65536;DHT22;52145;49.342;9.116;2023-02-11T22:26:14;5.60;99.90
65536;DHT22;52145;49.342;9.116;2023-02-11T22:28:40;5.60;99.90
65536;DHT22;52145;49.342;9.116;2023-02-11T22:31:11;5.70;99.90
65536;DHT22;52145;49.342;9.116;2023-02-11T22:33:37;5.70;99.90
65536;DHT22;52145;49.342;9.116;2023-02-11T22:36:05;5.70;99.90
65536;DHT22;52145;49.342;9.116;2023-02-11T22:38:32;5.80;99.90
65536;DHT22;52145;49.342;9.116;2023-02-11T22:40:59;5.70;99.90
65536;DHT22;52145;49.342;9.116;2023-02-11T22:43:28;5.60;99.90
65536;DHT22;52145;49.342;9.116;2023-02-11T22:45:54;5.50;99.90
65536;DHT22;52145;49.342;9.116;2023-02-11T22:48:20;5.50;99.90
65536;DHT22;52145;49.342;9.116;2023-02-11T22:50:46;5.40;99.90
65536;DHT22;52145;49.342;9.116;2023-02-11T22:53:11;5.30;99.90
65536;DHT22;52145;49.342;9.116;2023-02-11T22:55:39;5.30;99.90
